createdAt,value
2023-02-11T00:00:32.894Z,31.67
2023-02-11T00:02:59.264Z,30.95
2023-02-11T00:05:25.653Z,31.85
2023-02-11T00:07:52.303Z,31.85
2023-02-11T00:10:18.686Z,32.95
2023-02-11T00:12:45.101Z,31.00
2023-02-11T00:15:11.661Z,30.10
2023-02-11T00:17:37.999Z,31.60
2023-02-11T00:20:07.174Z,32.88
2023-02-11T00:22:34.582Z,29.15
2023-02-11T00:25:00.955Z,33.17
2023-02-11T00:27:27.354Z,30.30
2023-02-11T00:29:53.722Z,33.30
2023-02-11T00:32:20.079Z,31.75
2023-02-11T00:34:46.538Z,32.47
2023-02-11T00:37:13.630Z,30.20
2023-02-11T00:39:39.980Z,30.83
2023-02-11T00:42:06.398Z,29.80
2023-02-11T00:44:32.758Z,32.53
2023-02-11T00:46:59.105Z,31.95
2023-02-11T00:49:25.522Z,32.20
2023-02-11T00:51:52.051Z,30.73
2023-02-11T00:54:18.432Z,28.65
2023-02-11T00:56:44.848Z,33.63
2023-02-11T00:59:11.211Z,35.63
2023-02-11T01:01:37.681Z,28.45
2023-02-11T01:04:04.175Z,30.45
2023-02-11T01:06:30.737Z,30.08
2023-02-11T01:08:57.079Z,29.85
2023-02-11T01:11:23.462Z,30.25
2023-02-11T01:13:50.294Z,29.85
2023-02-11T01:16:18.517Z,33.72
2023-02-11T01:18:44.944Z,30.30
2023-02-11T01:21:11.929Z,29.33
2023-02-11T01:23:38.350Z,27.98
2023-02-11T01:26:05.722Z,32.63
2023-02-11T01:28:32.916Z,30.70
2023-02-11T01:31:01.317Z,33.08
2023-02-11T01:33:28.030Z,34.83
2023-02-11T01:35:54.406Z,30.05
2023-02-11T01:38:25.961Z,30.48
2023-02-11T01:40:57.995Z,29.90
2023-02-11T01:43:25.582Z,29.88
2023-02-11T01:46:12.651Z,33.03
2023-02-11T01:48:43.823Z,28.95
2023-02-11T01:51:20.583Z,28.13
2023-02-11T01:54:06.693Z,25.65
2023-02-11T01:56:55.708Z,29.35
2023-02-11T01:59:32.060Z,30.77
2023-02-11T02:02:02.401Z,33.72
2023-02-11T02:04:35.833Z,27.42
2023-02-11T02:07:08.646Z,28.25
2023-02-11T02:09:41.896Z,34.05
2023-02-11T02:12:08.274Z,30.60
2023-02-11T02:14:38.538Z,30.45
2023-02-11T02:17:04.905Z,29.08
2023-02-11T02:20:09.141Z,29.45
2023-02-11T02:22:58.090Z,31.55
2023-02-11T02:26:14.710Z,33.17
2023-02-11T02:29:18.082Z,27.67
2023-02-11T02:32:16.619Z,31.25
2023-02-11T02:34:53.964Z,33.28
2023-02-11T02:37:47.372Z,30.92
2023-02-11T02:40:21.829Z,34.90
2023-02-11T02:42:49.206Z,30.17
2023-02-11T02:45:16.617Z,33.03
2023-02-11T02:47:44.017Z,28.95
2023-02-11T02:50:13.524Z,30.73
2023-02-11T02:53:18.927Z,31.42
2023-02-11T02:56:00.268Z,31.08
2023-02-11T02:58:54.436Z,27.40
2023-02-11T03:01:56.071Z,29.60
2023-02-11T03:04:38.403Z,28.98
2023-02-11T03:07:29.150Z,29.30
2023-02-11T03:10:02.673Z,29.30
2023-02-11T03:12:32.436Z,30.73
2023-02-11T03:17:27.907Z,26.42
2023-02-11T03:19:55.135Z,29.08
2023-02-11T03:22:34.927Z,31.15
2023-02-11T03:25:02.704Z,29.38
2023-02-11T03:27:38.838Z,30.67
2023-02-11T03:30:30.499Z,30.15
2023-02-11T03:33:29.322Z,29.45
2023-02-11T03:36:01.582Z,30.95
2023-02-11T03:38:37.909Z,33.15
2023-02-11T03:41:07.906Z,33.10
2023-02-11T03:43:38.655Z,35.08
2023-02-11T03:46:06.209Z,32.95
2023-02-11T03:48:39.012Z,31.83
2023-02-11T03:51:07.949Z,31.02
2023-02-11T03:53:34.824Z,33.45
2023-02-11T03:56:04.968Z,31.90
2023-02-11T03:58:31.396Z,32.35
2023-02-11T04:00:57.910Z,34.65
2023-02-11T04:03:24.384Z,33.97
2023-02-11T04:05:51.027Z,28.90
2023-02-11T04:08:17.495Z,33.65
2023-02-11T04:10:45.176Z,32.50
2023-02-11T04:13:11.652Z,32.17
2023-02-11T04:15:38.029Z,34.08
2023-02-11T04:18:04.483Z,34.30
2023-02-11T04:20:30.948Z,32.15
2023-02-11T04:22:57.288Z,32.40
2023-02-11T04:25:24.291Z,33.42
2023-02-11T04:27:50.662Z,34.03
2023-02-11T04:30:17.040Z,33.28
2023-02-11T04:32:43.494Z,31.02
2023-02-11T04:35:09.913Z,31.30
2023-02-11T04:37:36.302Z,32.55
2023-02-11T04:40:02.939Z,32.45
2023-02-11T04:42:29.354Z,35.67
2023-02-11T04:44:55.700Z,33.53
2023-02-11T04:47:22.107Z,32.85
2023-02-11T04:49:48.492Z,29.55
2023-02-11T04:52:16.201Z,29.40
2023-02-11T04:54:42.595Z,34.45
2023-02-11T04:57:08.948Z,31.00
2023-02-11T04:59:35.329Z,27.73
2023-02-11T05:02:01.694Z,31.88
2023-02-11T05:04:28.107Z,33.72
2023-02-11T05:06:55.637Z,34.60
2023-02-11T05:09:23.476Z,36.67
2023-02-11T05:11:49.837Z,34.17
2023-02-11T05:14:16.204Z,34.65
2023-02-11T05:16:42.569Z,35.20
2023-02-11T05:19:08.925Z,39.63
2023-02-11T05:21:35.372Z,32.55
2023-02-11T05:24:01.753Z,35.67
2023-02-11T05:26:28.131Z,36.40
2023-02-11T05:28:54.501Z,36.17
2023-02-11T05:31:20.955Z,32.53
2023-02-11T05:33:47.430Z,39.15
2023-02-11T05:36:14.335Z,35.25
2023-02-11T05:38:42.499Z,35.90
2023-02-11T05:41:09.233Z,36.40
2023-02-11T05:43:36.505Z,37.10
2023-02-11T05:46:06.133Z,36.70
2023-02-11T05:48:32.805Z,35.38
2023-02-11T05:50:59.560Z,39.03
2023-02-11T05:53:26.009Z,38.47
2023-02-11T05:55:52.688Z,38.45
2023-02-11T05:58:19.203Z,36.42
2023-02-11T06:00:45.623Z,36.35
2023-02-11T06:03:12.018Z,40.45
2023-02-11T06:05:38.466Z,37.97
2023-02-11T06:08:05.043Z,44.40
2023-02-11T06:10:31.478Z,38.55
2023-02-11T06:12:57.804Z,38.28
2023-02-11T06:15:24.155Z,37.75
2023-02-11T06:17:50.869Z,40.63
2023-02-11T06:20:17.418Z,38.50
2023-02-11T06:22:43.922Z,39.33
2023-02-11T06:25:11.224Z,38.80
2023-02-11T06:27:38.142Z,38.92
2023-02-11T06:30:06.120Z,35.53
2023-02-11T06:32:43.912Z,36.90
2023-02-11T06:35:12.241Z,37.60
2023-02-11T06:37:39.790Z,34.50
2023-02-11T06:40:06.778Z,38.40
2023-02-11T06:42:33.131Z,39.50
2023-02-11T06:44:59.515Z,39.45
2023-02-11T06:47:25.918Z,37.95
2023-02-11T06:49:52.283Z,36.90
2023-02-11T06:52:18.649Z,36.60
2023-02-11T06:54:46.079Z,38.13
2023-02-11T06:57:12.435Z,37.35
2023-02-11T06:59:38.778Z,41.30
2023-02-11T07:02:05.263Z,34.28
2023-02-11T07:04:31.658Z,37.25
2023-02-11T07:06:58.023Z,40.75
2023-02-11T07:09:24.377Z,40.15
2023-02-11T07:11:50.713Z,36.97
2023-02-11T07:14:17.326Z,41.78
2023-02-11T07:16:43.684Z,38.58
2023-02-11T07:19:10.385Z,39.72
2023-02-11T07:21:36.720Z,41.65
2023-02-11T07:24:08.881Z,40.30
2023-02-11T07:26:37.051Z,32.85
2023-02-11T07:29:03.525Z,42.05
2023-02-11T07:31:31.181Z,41.75
2023-02-11T07:34:00.257Z,45.00
2023-02-11T07:36:27.962Z,42.88
2023-02-11T07:38:54.381Z,41.53
2023-02-11T07:41:22.988Z,36.45
2023-02-11T07:43:49.622Z,42.03
2023-02-11T07:46:35.658Z,53.30
2023-02-11T07:49:02.090Z,43.08
2023-02-11T07:51:30.320Z,45.28
2023-02-11T07:53:59.436Z,40.72
2023-02-11T07:56:26.255Z,38.97
2023-02-11T07:58:52.807Z,41.08
2023-02-11T08:01:24.902Z,39.63
2023-02-11T08:03:52.254Z,41.83
2023-02-11T08:06:20.967Z,38.90
2023-02-11T08:08:47.955Z,40.65
2023-02-11T08:11:17.419Z,40.53
2023-02-11T08:13:44.671Z,38.78
2023-02-11T08:16:19.935Z,34.63
2023-02-11T08:18:46.740Z,39.78
2023-02-11T08:21:13.071Z,36.80
2023-02-11T08:23:40.819Z,37.03
2023-02-11T08:26:11.017Z,35.10
2023-02-11T08:28:39.175Z,41.38
2023-02-11T08:31:07.636Z,41.92
2023-02-11T08:33:34.696Z,37.92
2023-02-11T08:36:01.773Z,36.60
2023-02-11T08:38:28.129Z,38.80
2023-02-11T08:40:54.485Z,37.80
2023-02-11T08:43:20.840Z,36.95
2023-02-11T08:45:47.264Z,36.90
2023-02-11T08:48:13.636Z,37.53
2023-02-11T08:50:39.996Z,39.30
2023-02-11T08:53:06.351Z,38.75
2023-02-11T08:55:32.694Z,35.47
2023-02-11T08:57:59.039Z,37.47
2023-02-11T09:00:25.777Z,38.08
2023-02-11T09:02:52.242Z,38.75
2023-02-11T09:05:18.597Z,35.83
2023-02-11T09:07:44.999Z,31.05
2023-02-11T09:10:11.356Z,33.17
2023-02-11T09:12:37.711Z,35.20
2023-02-11T09:15:04.364Z,38.30
2023-02-11T09:17:30.710Z,37.10
2023-02-11T09:19:57.076Z,37.83
2023-02-11T09:22:23.449Z,40.22
2023-02-11T09:24:49.924Z,40.53
2023-02-11T09:27:16.270Z,40.30
2023-02-11T09:29:42.625Z,39.75
2023-02-11T09:32:10.011Z,37.90
2023-02-11T09:34:36.695Z,37.47
2023-02-11T09:37:03.144Z,38.45
2023-02-11T09:39:29.843Z,37.00
2023-02-11T09:42:20.776Z,36.88
2023-02-11T09:44:47.597Z,41.30
2023-02-11T09:47:31.962Z,30.42
2023-02-11T09:50:13.649Z,38.67
2023-02-11T09:53:02.778Z,38.20
2023-02-11T09:55:42.477Z,40.50
2023-02-11T09:58:21.150Z,38.92
2023-02-11T10:01:10.681Z,35.97
2023-02-11T10:03:43.376Z,36.78
2023-02-11T10:06:24.465Z,40.47
2023-02-11T10:09:01.536Z,38.38
2023-02-11T10:11:39.284Z,41.45
2023-02-11T10:14:33.959Z,37.00
2023-02-11T10:17:21.538Z,39.92
2023-02-11T10:20:16.948Z,38.63
2023-02-11T10:23:19.249Z,38.75
2023-02-11T10:25:50.673Z,38.53
2023-02-11T10:28:20.211Z,35.90
2023-02-11T10:31:15.793Z,34.40
2023-02-11T10:33:52.321Z,37.47
2023-02-11T10:36:19.702Z,36.35
2023-02-11T10:38:46.076Z,35.92
2023-02-11T10:41:25.024Z,34.75
2023-02-11T10:43:52.166Z,35.03
2023-02-11T10:46:24.043Z,37.83
2023-02-11T10:48:53.632Z,38.35
2023-02-11T10:51:34.206Z,37.65
2023-02-11T10:54:03.496Z,33.15
2023-02-11T10:56:32.620Z,37.53
2023-02-11T10:59:01.700Z,37.40
2023-02-11T11:01:40.748Z,33.13
2023-02-11T11:04:40.211Z,39.25
2023-02-11T11:07:22.741Z,34.83
2023-02-11T11:09:55.750Z,38.38
2023-02-11T11:12:32.956Z,36.88
2023-02-11T11:15:02.458Z,38.10
2023-02-11T11:17:29.177Z,35.63
2023-02-11T11:20:15.884Z,35.85
2023-02-11T11:22:43.167Z,35.78
2023-02-11T11:25:29.246Z,34.35
2023-02-11T11:27:59.153Z,33.83
2023-02-11T11:30:32.976Z,37.15
2023-02-11T11:33:00.821Z,30.25
2023-02-11T11:35:29.855Z,32.92
2023-02-11T11:38:02.345Z,35.03
2023-02-11T11:40:31.401Z,35.80
2023-02-11T11:43:23.255Z,32.88
2023-02-11T11:45:56.449Z,34.00
2023-02-11T11:48:28.328Z,35.65
2023-02-11T11:51:02.163Z,33.63
2023-02-11T11:53:41.204Z,32.97
2023-02-11T11:56:28.675Z,33.38
2023-02-11T11:58:55.039Z,32.03
2023-02-11T12:01:58.914Z,34.95
2023-02-11T12:05:15.355Z,32.75
2023-02-11T12:08:05.574Z,31.42
2023-02-11T12:10:44.057Z,34.17
2023-02-11T12:13:39.387Z,31.67
2023-02-11T12:16:28.384Z,33.78
2023-02-11T12:19:13.595Z,30.05
2023-02-11T12:21:58.283Z,36.22
2023-02-11T12:24:45.090Z,33.38
2023-02-11T12:27:43.872Z,31.55
2023-02-11T12:30:25.035Z,39.05
2023-02-11T12:33:39.925Z,35.08
2023-02-11T12:36:32.438Z,35.10
2023-02-11T12:39:16.719Z,32.65
2023-02-11T12:42:38.030Z,31.42
2023-02-11T12:45:14.002Z,37.33
2023-02-11T12:48:04.876Z,36.67
2023-02-11T12:50:46.227Z,36.40
2023-02-11T12:53:37.506Z,31.45
2023-02-11T12:56:18.208Z,37.65
2023-02-11T12:58:47.531Z,48.10
2023-02-11T13:01:23.529Z,35.75
2023-02-11T13:04:13.502Z,33.42
2023-02-11T13:06:51.880Z,33.70
2023-02-11T13:09:34.696Z,27.92
2023-02-11T13:12:24.267Z,33.42
2023-02-11T13:14:54.401Z,32.97
2023-02-11T13:17:29.922Z,31.60
2023-02-11T13:20:08.018Z,29.63
2023-02-11T13:22:44.030Z,29.30
2023-02-11T13:25:26.380Z,32.97
2023-02-11T13:28:25.628Z,31.60
2023-02-11T13:31:02.150Z,31.77
2023-02-11T13:33:35.308Z,33.95
2023-02-11T13:36:04.394Z,35.85
2023-02-11T13:38:32.431Z,33.28
2023-02-11T13:41:24.650Z,31.83
2023-02-11T13:44:04.082Z,31.92
2023-02-11T13:46:54.100Z,30.83
2023-02-11T13:49:24.573Z,32.42
2023-02-11T13:51:52.388Z,26.80
2023-02-11T13:54:39.595Z,31.88
2023-02-11T13:57:21.002Z,33.25
2023-02-11T13:59:51.680Z,34.13
2023-02-11T14:02:44.257Z,32.88
2023-02-11T14:09:01.811Z,33.25
2023-02-11T14:11:34.057Z,29.98
2023-02-11T14:14:18.783Z,33.45
2023-02-11T14:17:11.210Z,32.85
2023-02-11T14:19:40.804Z,33.55
2023-02-11T14:22:40.250Z,33.08
2023-02-11T14:25:20.112Z,33.83
2023-02-11T14:27:54.455Z,29.25
2023-02-11T14:30:30.534Z,29.52
2023-02-11T14:33:14.162Z,31.35
2023-02-11T14:36:07.001Z,31.08
2023-02-11T14:38:51.446Z,32.35
2023-02-11T14:41:24.508Z,28.25
2023-02-11T14:43:57.763Z,32.15
2023-02-11T14:46:27.830Z,32.83
2023-02-11T14:48:58.178Z,33.67
2023-02-11T14:51:28.114Z,29.10
2023-02-11T14:53:59.208Z,33.92
2023-02-11T14:56:31.232Z,31.90
2023-02-11T14:58:58.318Z,33.78
2023-02-11T15:01:33.854Z,28.67
2023-02-11T15:04:02.875Z,28.40
2023-02-11T15:06:36.724Z,31.67
2023-02-11T15:09:16.591Z,31.05
2023-02-11T15:11:46.520Z,33.88
2023-02-11T15:14:28.381Z,32.13
2023-02-11T15:16:58.292Z,31.00
2023-02-11T15:19:38.929Z,28.77
2023-02-11T15:22:10.582Z,30.15
2023-02-11T15:24:39.251Z,27.70
2023-02-11T15:27:08.602Z,31.35
2023-02-11T15:29:41.227Z,30.90
2023-02-11T15:32:17.686Z,29.58
2023-02-11T15:34:45.970Z,28.95
2023-02-11T15:37:24.807Z,32.25
2023-02-11T15:39:52.449Z,29.50
2023-02-11T15:42:27.689Z,31.80
2023-02-11T15:45:13.670Z,29.98
2023-02-11T15:47:53.001Z,30.67
2023-02-11T15:50:24.433Z,32.75
2023-02-11T15:52:52.418Z,31.52
2023-02-11T15:55:20.471Z,32.03
2023-02-11T15:57:54.772Z,32.50
2023-02-11T16:00:24.657Z,32.42
2023-02-11T16:02:52.381Z,30.23
2023-02-11T16:05:28.201Z,33.78
2023-02-11T16:10:40.008Z,28.77
2023-02-11T16:13:06.310Z,31.27
2023-02-11T16:15:38.144Z,30.60
2023-02-11T16:18:14.088Z,31.75
2023-02-11T16:20:40.875Z,29.95
2023-02-11T16:23:07.837Z,35.08
2023-02-11T16:25:37.610Z,33.05
2023-02-11T16:30:36.406Z,28.92
2023-02-11T16:33:04.156Z,33.22
2023-02-11T16:35:30.630Z,36.92
2023-02-11T16:37:57.380Z,32.78
2023-02-11T16:40:24.024Z,38.05
2023-02-11T16:42:52.357Z,36.80
2023-02-11T16:45:18.924Z,41.92
2023-02-11T16:47:46.129Z,38.20
2023-02-11T16:50:22.504Z,36.83
2023-02-11T16:52:49.179Z,39.58
2023-02-11T16:55:15.665Z,34.58
2023-02-11T16:57:42.005Z,32.45
2023-02-11T17:00:08.932Z,44.03
2023-02-11T17:02:36.965Z,42.47
2023-02-11T17:05:08.555Z,38.15
2023-02-11T17:07:35.290Z,45.55
2023-02-11T17:10:02.037Z,42.05
2023-02-11T17:12:28.390Z,47.05
2023-02-11T17:14:54.750Z,46.78
2023-02-11T17:17:23.864Z,44.35
2023-02-11T17:19:51.114Z,41.15
2023-02-11T17:22:18.412Z,42.05
2023-02-11T17:24:44.751Z,38.97
2023-02-11T17:27:11.762Z,33.90
2023-02-11T17:29:38.140Z,40.20
2023-02-11T17:32:04.619Z,36.10
2023-02-11T17:34:32.264Z,36.80
2023-02-11T17:37:00.073Z,36.78
2023-02-11T17:39:27.506Z,34.58
2023-02-11T17:41:53.881Z,42.65
2023-02-11T17:44:20.454Z,36.17
2023-02-11T17:46:46.834Z,34.17
2023-02-11T17:49:13.211Z,39.60
2023-02-11T17:51:40.246Z,43.35
2023-02-11T17:54:10.807Z,36.35
2023-02-11T17:56:37.653Z,37.47
2023-02-11T17:59:05.340Z,36.30
2023-02-11T18:01:33.370Z,35.50
2023-02-11T18:04:00.777Z,37.88
2023-02-11T18:06:28.967Z,36.03
2023-02-11T18:08:58.009Z,37.47
2023-02-11T18:11:25.246Z,38.22
2023-02-11T18:13:54.468Z,36.75
2023-02-11T18:16:22.357Z,36.08
2023-02-11T18:18:49.778Z,39.45
2023-02-11T18:21:20.756Z,40.38
2023-02-11T18:23:48.037Z,37.42
2023-02-11T18:26:16.140Z,35.75
2023-02-11T18:28:45.561Z,30.83
2023-02-11T18:31:13.714Z,35.83
2023-02-11T18:33:41.425Z,35.28
2023-02-11T18:36:09.751Z,32.83
2023-02-11T18:38:36.569Z,37.22
2023-02-11T18:41:04.041Z,37.50
2023-02-11T18:43:31.652Z,38.40
2023-02-11T18:45:58.401Z,34.30
2023-02-11T18:48:26.996Z,36.03
2023-02-11T18:50:54.470Z,39.05
2023-02-11T18:53:21.248Z,38.63
2023-02-11T18:55:47.811Z,37.42
2023-02-11T18:58:15.349Z,36.28
2023-02-11T19:00:44.484Z,36.53
2023-02-11T19:03:11.125Z,35.58
2023-02-11T19:05:46.510Z,43.25
2023-02-11T19:08:13.661Z,35.53
2023-02-11T19:10:42.397Z,32.92
2023-02-11T19:13:10.148Z,34.35
2023-02-11T19:15:41.422Z,31.30
2023-02-11T19:18:07.801Z,37.33
2023-02-11T19:20:34.163Z,37.10
2023-02-11T19:23:00.832Z,36.15
2023-02-11T19:25:27.473Z,35.85
2023-02-11T19:27:53.843Z,36.92
2023-02-11T19:30:20.252Z,37.97
2023-02-11T19:32:46.579Z,39.72
2023-02-11T19:35:12.941Z,41.17
2023-02-11T19:37:39.291Z,42.15
2023-02-11T19:40:06.383Z,41.15
2023-02-11T19:42:32.725Z,37.25
2023-02-11T19:44:59.120Z,38.95
2023-02-11T19:47:27.609Z,33.83
2023-02-11T19:49:54.395Z,34.33
2023-02-11T19:52:20.837Z,34.63
2023-02-11T19:54:47.218Z,36.20
2023-02-11T19:57:13.571Z,41.85
2023-02-11T19:59:40.008Z,37.70
2023-02-11T20:02:06.603Z,38.92
2023-02-11T20:04:33.270Z,36.75
2023-02-11T20:07:00.908Z,37.88
2023-02-11T20:09:28.941Z,34.78
2023-02-11T20:11:55.309Z,33.22
2023-02-11T20:14:21.660Z,33.97
2023-02-11T20:16:49.932Z,32.90
2023-02-11T20:19:19.195Z,33.70
2023-02-11T20:21:47.921Z,33.92
2023-02-11T20:24:18.042Z,39.05
2023-02-11T20:26:46.750Z,33.75
2023-02-11T20:29:13.127Z,37.05
2023-02-11T20:31:39.567Z,34.50
2023-02-11T20:34:05.970Z,36.55
2023-02-11T20:36:35.590Z,34.75
2023-02-11T20:41:34.142Z,35.72
2023-02-11T20:44:04.390Z,35.20
2023-02-11T20:46:32.866Z,33.50
2023-02-11T20:49:00.430Z,30.73
2023-02-11T20:51:29.730Z,33.70
2023-02-11T20:53:56.721Z,30.42
2023-02-11T20:56:29.019Z,30.00
2023-02-11T20:58:57.576Z,33.88
2023-02-11T21:01:27.216Z,29.95
2023-02-11T21:06:30.918Z,28.88
2023-02-11T21:08:57.544Z,28.88
2023-02-11T21:11:24.157Z,27.60
2023-02-11T21:13:51.041Z,29.10
2023-02-11T21:16:22.876Z,31.17
2023-02-11T21:18:50.489Z,31.58
2023-02-11T21:21:17.298Z,31.65
2023-02-11T21:23:43.843Z,30.60
2023-02-11T21:26:10.458Z,32.30
2023-02-11T21:28:40.522Z,33.47
2023-02-11T21:31:07.642Z,33.45
2023-02-11T21:33:34.625Z,34.45
2023-02-11T21:36:03.524Z,33.45
2023-02-11T21:38:30.411Z,35.92
2023-02-11T21:41:03.079Z,28.83
2023-02-11T21:43:29.841Z,30.65
2023-02-11T21:45:56.437Z,31.50
2023-02-11T21:48:23.827Z,28.98
2023-02-11T21:50:50.524Z,30.63
2023-02-11T21:53:16.912Z,30.00
2023-02-11T21:55:43.619Z,30.90
2023-02-11T21:58:11.049Z,30.23
2023-02-11T22:00:37.516Z,30.85
2023-02-11T22:03:03.943Z,30.65
2023-02-11T22:05:30.392Z,31.55
2023-02-11T22:07:56.799Z,32.35
2023-02-11T22:10:23.687Z,34.83
2023-02-11T22:12:50.047Z,39.03
2023-02-11T22:15:16.485Z,38.75
2023-02-11T22:17:42.855Z,40.50
2023-02-11T22:20:10.162Z,37.83
2023-02-11T22:22:36.536Z,42.22
2023-02-11T22:25:04.000Z,46.50
2023-02-11T22:27:30.712Z,43.72
2023-02-11T22:29:57.068Z,40.20
2023-02-11T22:32:23.455Z,41.25
2023-02-11T22:34:52.180Z,42.75
2023-02-11T22:37:19.667Z,39.88
2023-02-11T22:39:46.031Z,41.03
2023-02-11T22:42:12.404Z,41.45
2023-02-11T22:44:38.744Z,44.08
2023-02-11T22:47:05.100Z,42.08
2023-02-11T22:49:33.122Z,44.75
2023-02-11T22:51:59.954Z,40.08
2023-02-11T22:54:26.395Z,41.28
2023-02-11T22:56:53.337Z,37.50
2023-02-11T22:59:20.691Z,46.22
2023-02-11T23:01:48.788Z,42.28
2023-02-11T23:04:17.076Z,41.50
2023-02-11T23:06:43.891Z,44.83
2023-02-11T23:09:12.369Z,42.80
2023-02-11T23:11:40.468Z,44.45
2023-02-11T23:14:08.618Z,45.08
2023-02-11T23:16:35.413Z,45.58
2023-02-11T23:19:06.171Z,48.15
2023-02-11T23:21:35.706Z,46.40
2023-02-11T23:24:05.976Z,49.85
2023-02-11T23:26:32.457Z,50.72
2023-02-11T23:28:59.456Z,50.35
2023-02-11T23:31:34.633Z,47.53
2023-02-11T23:34:01.612Z,49.78
2023-02-11T23:36:28.488Z,51.78
2023-02-11T23:38:55.247Z,43.67
2023-02-11T23:41:21.686Z,47.67
2023-02-11T23:43:53.269Z,46.40
2023-02-11T23:46:22.099Z,49.85
2023-02-11T23:48:49.310Z,51.47
2023-02-11T23:51:16.099Z,55.67
2023-02-11T23:53:42.584Z,50.72
2023-02-11T23:56:11.128Z,48.72
2023-02-11T23:58:37.513Z,60.08
